createdAt,value
2022-12-07T00:01:54.629Z,14.77
2022-12-07T00:04:21.941Z,13.68
2022-12-07T00:06:53.204Z,15.07
2022-12-07T00:09:22.649Z,14.85
2022-12-07T00:11:51.592Z,14.10
2022-12-07T00:14:19.515Z,11.87
2022-12-07T00:16:49.186Z,11.68
2022-12-07T00:19:17.865Z,11.10
2022-12-07T00:21:45.217Z,13.13
2022-12-07T00:24:13.671Z,14.63
2022-12-07T00:26:42.380Z,9.97
2022-12-07T00:29:14.266Z,11.73
2022-12-07T00:31:41.735Z,12.07
2022-12-07T00:34:13.636Z,11.18
2022-12-07T00:36:42.622Z,12.55
2022-12-07T00:39:10.019Z,11.40
2022-12-07T00:41:37.443Z,11.60
2022-12-07T00:44:04.989Z,13.20
2022-12-07T00:46:32.356Z,11.93
2022-12-07T00:48:59.698Z,12.65
2022-12-07T00:51:27.052Z,9.40
2022-12-07T00:53:55.888Z,11.50
2022-12-07T00:56:24.806Z,11.38
2022-12-07T00:58:54.207Z,10.95
2022-12-07T01:01:21.518Z,10.85
2022-12-07T01:03:49.283Z,10.47
2022-12-07T01:06:17.517Z,9.90
2022-12-07T01:08:45.266Z,10.65
2022-12-07T01:11:16.135Z,10.95
2022-12-07T01:13:43.690Z,12.68
2022-12-07T01:16:13.168Z,8.87
2022-12-07T01:18:41.715Z,10.15
2022-12-07T01:21:13.220Z,10.02
2022-12-07T01:23:41.212Z,10.35
2022-12-07T01:26:11.821Z,10.77
2022-12-07T01:28:40.685Z,9.77
2022-12-07T01:31:12.379Z,9.68
2022-12-07T01:33:40.511Z,9.35
2022-12-07T01:36:09.832Z,11.00
2022-12-07T01:38:37.081Z,8.77
2022-12-07T01:41:04.425Z,10.77
2022-12-07T01:43:33.854Z,7.68
2022-12-07T01:46:03.446Z,10.90
2022-12-07T01:48:35.764Z,9.63
2022-12-07T01:51:06.251Z,9.02
2022-12-07T01:53:36.279Z,8.43
2022-12-07T01:56:03.776Z,9.27
2022-12-07T01:58:31.352Z,8.40
2022-12-07T02:00:58.813Z,7.95
2022-12-07T02:03:33.206Z,8.30
2022-12-07T02:06:01.261Z,8.00
2022-12-07T02:08:28.545Z,8.55
2022-12-07T02:10:56.025Z,9.75
2022-12-07T02:13:29.195Z,6.88
2022-12-07T02:16:10.303Z,9.13
2022-12-07T02:18:49.723Z,8.30
2022-12-07T02:21:22.501Z,8.80
2022-12-07T02:24:25.374Z,7.05
2022-12-07T02:27:22.760Z,8.07
2022-12-07T02:29:57.757Z,8.98
2022-12-07T02:32:29.045Z,6.87
2022-12-07T02:35:01.585Z,7.97
2022-12-07T02:37:37.372Z,7.65
2022-12-07T02:40:10.729Z,7.18
2022-12-07T02:42:43.513Z,8.68
2022-12-07T02:45:15.086Z,8.97
2022-12-07T02:47:44.229Z,7.88
2022-12-07T02:50:12.831Z,7.50
2022-12-07T02:52:40.095Z,8.68
2022-12-07T02:55:09.151Z,8.25
2022-12-07T02:57:50.813Z,7.87
2022-12-07T03:00:21.342Z,8.93
2022-12-07T03:02:54.902Z,8.52
2022-12-07T03:05:38.332Z,9.27
2022-12-07T03:08:12.458Z,8.68
2022-12-07T03:10:49.364Z,8.50
2022-12-07T03:13:22.824Z,8.77
2022-12-07T03:15:59.833Z,9.23
2022-12-07T03:18:31.301Z,9.68
2022-12-07T03:21:02.642Z,8.07
2022-12-07T03:23:34.949Z,10.17
2022-12-07T03:26:03.760Z,9.43
2022-12-07T03:28:35.732Z,9.68
2022-12-07T03:31:08.901Z,9.50
2022-12-07T03:33:43.120Z,7.75
2022-12-07T03:36:15.569Z,8.73
2022-12-07T03:38:48.818Z,9.57
2022-12-07T03:41:20.089Z,10.50
2022-12-07T03:43:47.565Z,8.35
2022-12-07T03:46:22.325Z,9.73
2022-12-07T03:48:59.573Z,9.47
2022-12-07T03:51:32.286Z,9.25
2022-12-07T03:54:06.862Z,7.65
2022-12-07T03:56:35.558Z,10.23
2022-12-07T03:59:02.858Z,10.52
2022-12-07T04:01:33.010Z,12.03
2022-12-07T04:04:00.361Z,10.43
2022-12-07T04:06:27.597Z,10.90
2022-12-07T04:08:54.860Z,10.38
2022-12-07T04:11:22.128Z,8.88
2022-12-07T04:14:08.024Z,11.13
2022-12-07T04:16:41.129Z,12.43
2022-12-07T04:19:12.011Z,10.15
2022-12-07T04:21:39.392Z,14.40
2022-12-07T04:24:07.099Z,24.52
2022-12-07T04:26:34.435Z,11.73
2022-12-07T04:29:07.302Z,15.00
2022-12-07T04:31:36.706Z,11.68
2022-12-07T04:34:04.606Z,12.07
2022-12-07T04:36:32.351Z,12.27
2022-12-07T04:38:59.633Z,14.13
2022-12-07T04:41:30.105Z,15.07
2022-12-07T04:43:59.563Z,12.75
2022-12-07T04:46:28.061Z,14.75
2022-12-07T04:48:57.177Z,14.52
2022-12-07T04:51:26.283Z,15.73
2022-12-07T04:53:54.344Z,15.15
2022-12-07T04:56:21.659Z,14.98
2022-12-07T04:58:49.814Z,13.15
2022-12-07T05:01:18.550Z,14.27
2022-12-07T05:03:46.073Z,18.57
2022-12-07T05:06:15.767Z,16.58
2022-12-07T05:08:43.980Z,17.80
2022-12-07T05:11:31.749Z,17.27
2022-12-07T05:13:59.029Z,18.20
2022-12-07T05:16:26.467Z,17.10
2022-12-07T05:18:53.833Z,18.38
2022-12-07T05:21:23.027Z,19.23
2022-12-07T05:23:50.331Z,18.60
2022-12-07T05:26:17.602Z,20.38
2022-12-07T05:28:44.855Z,21.90
2022-12-07T05:31:12.192Z,19.35
2022-12-07T05:33:39.467Z,20.48
2022-12-07T05:36:08.279Z,20.55
2022-12-07T05:38:36.897Z,18.58
2022-12-07T05:41:05.240Z,20.03
2022-12-07T05:43:32.822Z,20.13
2022-12-07T05:46:00.407Z,22.13
2022-12-07T05:48:27.837Z,20.98
2022-12-07T05:50:55.049Z,19.75
2022-12-07T05:53:23.370Z,19.33
2022-12-07T05:55:53.306Z,17.10
2022-12-07T05:58:39.363Z,22.10
2022-12-07T06:01:06.658Z,17.20
2022-12-07T06:03:33.965Z,23.77
2022-12-07T06:06:01.311Z,20.93
2022-12-07T06:08:28.642Z,22.02
2022-12-07T06:11:15.944Z,21.83
2022-12-07T06:13:47.148Z,23.42
2022-12-07T06:16:14.867Z,20.98
2022-12-07T06:18:42.139Z,26.80
2022-12-07T06:21:09.404Z,19.85
2022-12-07T06:23:36.651Z,24.30
2022-12-07T06:26:05.369Z,25.52
2022-12-07T06:28:32.630Z,24.17
2022-12-07T06:31:00.226Z,25.37
2022-12-07T06:33:27.968Z,25.30
2022-12-07T06:35:55.273Z,20.77
2022-12-07T06:38:22.678Z,20.65
2022-12-07T06:40:50.097Z,22.17
2022-12-07T06:43:18.726Z,21.90
2022-12-07T06:45:46.106Z,17.90
2022-12-07T06:48:13.401Z,20.20
2022-12-07T06:50:40.918Z,17.67
2022-12-07T06:53:10.033Z,21.02
2022-12-07T06:55:37.274Z,22.43
2022-12-07T06:58:04.594Z,19.90
2022-12-07T07:00:33.205Z,22.83
2022-12-07T07:03:00.599Z,23.58
2022-12-07T07:05:27.893Z,22.60
2022-12-07T07:08:21.506Z,19.83
2022-12-07T07:10:42.929Z,21.27
2022-12-07T07:13:10.354Z,23.63
2022-12-07T07:15:44.337Z,23.88
2022-12-07T07:18:13.206Z,23.60
2022-12-07T07:20:40.604Z,26.10
2022-12-07T07:23:08.136Z,20.55
2022-12-07T07:25:35.670Z,27.55
2022-12-07T07:28:03.260Z,26.70
2022-12-07T07:30:30.655Z,20.50
2022-12-07T07:32:59.927Z,21.60
2022-12-07T07:35:27.466Z,25.50
2022-12-07T07:37:55.887Z,22.27
2022-12-07T07:40:23.869Z,22.30
2022-12-07T07:42:51.988Z,19.20
2022-12-07T07:45:19.455Z,19.97
2022-12-07T07:47:46.686Z,15.90
2022-12-07T07:50:15.724Z,18.30
2022-12-07T07:52:43.879Z,17.98
2022-12-07T07:55:11.589Z,14.82
2022-12-07T07:57:40.528Z,16.70
2022-12-07T08:00:12.202Z,21.90
2022-12-07T08:02:43.798Z,18.77
2022-12-07T08:05:12.898Z,15.77
2022-12-07T08:07:41.834Z,17.40
2022-12-07T08:10:11.949Z,13.97
2022-12-07T08:12:59.829Z,13.48
2022-12-07T08:15:28.151Z,11.43
2022-12-07T08:17:55.478Z,9.13
2022-12-07T08:20:22.847Z,12.15
2022-12-07T08:22:51.502Z,14.17
2022-12-07T08:25:19.129Z,12.85
2022-12-07T08:27:46.357Z,13.30
2022-12-07T08:30:13.986Z,11.35
2022-12-07T08:32:41.460Z,11.10
2022-12-07T08:35:09.431Z,10.33
2022-12-07T08:37:37.051Z,12.77
2022-12-07T08:40:07.471Z,9.50
2022-12-07T08:42:41.345Z,10.38
2022-12-07T08:45:11.055Z,12.30
2022-12-07T08:47:42.711Z,6.70
2022-12-07T08:50:12.212Z,9.30
2022-12-07T08:52:41.362Z,7.95
2022-12-07T08:55:11.070Z,6.07
2022-12-07T08:57:39.641Z,7.43
2022-12-07T09:00:08.463Z,8.13
2022-12-07T09:02:36.228Z,7.07
2022-12-07T09:05:04.414Z,5.63
2022-12-07T09:07:34.360Z,4.53
2022-12-07T09:10:02.309Z,3.90
2022-12-07T09:12:31.583Z,3.97
2022-12-07T09:14:58.893Z,4.28
2022-12-07T09:17:26.204Z,5.15
2022-12-07T09:19:53.473Z,6.38
2022-12-07T09:22:20.754Z,4.75
2022-12-07T09:24:48.111Z,4.17
2022-12-07T09:27:15.378Z,4.40
2022-12-07T09:29:44.013Z,5.95
2022-12-07T09:32:11.979Z,4.57
2022-12-07T09:34:39.538Z,4.78
2022-12-07T09:37:07.555Z,6.10
2022-12-07T09:39:34.890Z,5.32
2022-12-07T09:42:05.078Z,3.67
2022-12-07T09:44:33.411Z,5.55
2022-12-07T09:47:02.688Z,4.13
2022-12-07T09:49:32.836Z,4.17
2022-12-07T09:52:03.094Z,4.43
2022-12-07T09:54:31.717Z,5.28
2022-12-07T09:56:59.862Z,5.82
2022-12-07T09:59:29.353Z,4.90
2022-12-07T10:02:25.101Z,3.27
2022-12-07T10:04:52.705Z,4.30
2022-12-07T10:07:20.166Z,3.80
2022-12-07T10:09:47.436Z,4.05
2022-12-07T10:12:14.881Z,5.43
2022-12-07T10:15:10.856Z,5.93
2022-12-07T10:17:42.141Z,4.70
2022-12-07T10:20:18.982Z,4.53
2022-12-07T10:23:01.737Z,4.50
2022-12-07T10:25:33.711Z,4.60
2022-12-07T10:28:03.817Z,4.97
2022-12-07T10:30:32.612Z,4.03
2022-12-07T10:33:01.182Z,6.05
2022-12-07T10:35:29.963Z,4.13
2022-12-07T10:37:59.056Z,5.25
2022-12-07T10:40:29.926Z,5.20
2022-12-07T10:43:06.269Z,5.40
2022-12-07T10:45:38.717Z,5.07
2022-12-07T10:48:19.997Z,5.75
2022-12-07T10:51:00.985Z,5.38
2022-12-07T10:53:47.768Z,5.43
2022-12-07T10:56:52.593Z,5.97
2022-12-07T10:59:38.527Z,6.15
2022-12-07T11:02:24.266Z,4.93
2022-12-07T11:05:02.893Z,5.20
2022-12-07T11:07:43.831Z,5.20
2022-12-07T11:10:19.495Z,6.85
2022-12-07T11:13:16.761Z,6.38
2022-12-07T11:16:00.257Z,7.22
2022-12-07T11:18:33.333Z,7.57
2022-12-07T11:21:10.297Z,7.90
2022-12-07T11:23:49.764Z,5.70
2022-12-07T11:26:28.668Z,5.47
2022-12-07T11:29:13.725Z,5.60
2022-12-07T11:31:54.861Z,8.10
2022-12-07T11:34:30.654Z,4.87
2022-12-07T11:37:00.746Z,6.13
2022-12-07T11:39:35.541Z,6.78
2022-12-07T11:42:09.713Z,4.32
2022-12-07T11:44:47.714Z,7.55
2022-12-07T11:47:18.934Z,6.70
2022-12-07T11:49:52.869Z,6.05
2022-12-07T11:52:31.735Z,8.23
2022-12-07T11:55:01.208Z,11.00
2022-12-07T11:57:34.168Z,7.15
2022-12-07T12:00:05.834Z,6.83
2022-12-07T12:02:38.660Z,6.63
2022-12-07T12:05:14.653Z,7.53
2022-12-07T12:10:47.099Z,7.10
2022-12-07T12:16:48.508Z,6.32
2022-12-07T12:19:26.815Z,7.53
2022-12-07T12:21:58.595Z,6.68
2022-12-07T12:24:32.459Z,7.63
2022-12-07T12:27:04.630Z,6.10
2022-12-07T12:29:36.013Z,5.63
2022-12-07T12:32:11.934Z,6.55
2022-12-07T12:34:46.760Z,7.13
2022-12-07T12:37:43.526Z,5.70
2022-12-07T12:40:52.444Z,8.98
2022-12-07T12:43:44.420Z,6.25
2022-12-07T12:46:50.270Z,8.35
2022-12-07T12:50:11.659Z,6.00
2022-12-07T12:53:02.775Z,5.35
2022-12-07T12:56:14.956Z,6.32
2022-12-07T12:58:46.666Z,5.60
2022-12-07T13:01:43.278Z,5.82
2022-12-07T13:04:49.760Z,5.00
2022-12-07T13:07:54.142Z,7.03
2022-12-07T13:10:36.961Z,5.78
2022-12-07T13:13:25.501Z,7.15
2022-12-07T13:15:55.896Z,6.18
2022-12-07T13:18:25.625Z,6.80
2022-12-07T13:20:55.364Z,7.70
2022-12-07T13:23:30.263Z,6.00
2022-12-07T13:26:18.276Z,5.60
2022-12-07T13:28:48.267Z,5.93
2022-12-07T13:31:32.764Z,4.53
2022-12-07T13:34:00.883Z,4.53
2022-12-07T13:36:32.662Z,7.32
2022-12-07T13:39:01.474Z,6.78
2022-12-07T13:41:29.998Z,7.93
2022-12-07T13:44:03.691Z,7.67
2022-12-07T13:46:48.164Z,7.68
2022-12-07T13:49:22.370Z,7.43
2022-12-07T13:51:50.522Z,5.18
2022-12-07T13:54:18.963Z,5.20
2022-12-07T13:56:50.837Z,4.13
2022-12-07T13:59:20.827Z,6.78
2022-12-07T14:01:51.391Z,5.05
2022-12-07T14:04:21.110Z,7.18
2022-12-07T14:06:50.774Z,4.25
2022-12-07T14:09:21.205Z,6.23
2022-12-07T14:11:50.158Z,6.25
2022-12-07T14:14:21.073Z,6.97
2022-12-07T14:17:01.126Z,5.13
2022-12-07T14:19:50.248Z,7.55
2022-12-07T14:22:24.497Z,3.90
2022-12-07T14:24:58.729Z,6.55
2022-12-07T14:27:31.578Z,6.97
2022-12-07T14:29:58.950Z,7.53
2022-12-07T14:32:30.040Z,5.35
2022-12-07T14:34:59.811Z,5.70
2022-12-07T14:37:28.431Z,6.05
2022-12-07T14:39:55.919Z,7.82
2022-12-07T14:42:25.910Z,6.75
2022-12-07T14:44:53.162Z,7.72
2022-12-07T14:50:12.636Z,5.07
2022-12-07T14:55:29.953Z,6.75
2022-12-07T14:57:58.190Z,5.72
2022-12-07T15:00:27.495Z,4.83
2022-12-07T15:02:55.273Z,6.40
2022-12-07T15:05:24.338Z,7.25
2022-12-07T15:07:53.066Z,8.07
2022-12-07T15:10:24.487Z,5.03
2022-12-07T15:12:52.208Z,6.83
2022-12-07T15:15:19.580Z,6.00
2022-12-07T15:17:46.988Z,7.97
2022-12-07T15:20:17.707Z,7.57
2022-12-07T15:22:46.295Z,6.05
2022-12-07T15:25:14.387Z,8.03
2022-12-07T15:27:41.695Z,6.50
2022-12-07T15:30:09.437Z,6.03
2022-12-07T15:32:36.928Z,7.05
2022-12-07T15:35:05.045Z,7.57
2022-12-07T15:37:32.659Z,6.93
2022-12-07T15:40:07.120Z,6.97
2022-12-07T15:42:36.127Z,5.95
2022-12-07T15:45:07.385Z,6.00
2022-12-07T15:48:02.362Z,5.13
2022-12-07T15:50:24.942Z,6.93
2022-12-07T15:52:52.213Z,4.38
2022-12-07T15:55:21.149Z,5.93
2022-12-07T15:57:48.796Z,7.63
2022-12-07T16:00:17.092Z,8.27
2022-12-07T16:02:44.394Z,7.83
2022-12-07T16:05:11.690Z,7.03
2022-12-07T16:07:39.128Z,9.27
2022-12-07T16:10:07.936Z,7.05
2022-12-07T16:12:36.840Z,4.80
2022-12-07T16:15:04.825Z,6.90
2022-12-07T16:17:32.355Z,8.18
2022-12-07T16:19:59.672Z,7.45
2022-12-07T16:22:26.904Z,8.68
2022-12-07T16:24:54.185Z,6.45
2022-12-07T16:27:21.448Z,7.70
2022-12-07T16:29:50.023Z,6.85
2022-12-07T16:32:17.250Z,6.70
2022-12-07T16:34:44.600Z,7.13
2022-12-07T16:37:11.962Z,10.50
2022-12-07T16:39:39.225Z,7.17
2022-12-07T16:42:06.745Z,6.57
2022-12-07T16:44:34.088Z,7.00
2022-12-07T16:47:02.858Z,8.20
2022-12-07T16:49:30.269Z,6.97
2022-12-07T16:52:18.801Z,7.17
2022-12-07T16:54:45.517Z,7.20
2022-12-07T16:57:18.165Z,8.43
2022-12-07T16:59:49.060Z,7.70
2022-12-07T17:02:17.662Z,10.25
2022-12-07T17:04:44.886Z,6.90
2022-12-07T17:07:12.201Z,10.43
2022-12-07T17:09:39.439Z,7.43
2022-12-07T17:12:07.744Z,9.07
2022-12-07T17:14:53.869Z,8.00
2022-12-07T17:17:22.466Z,5.30
2022-12-07T17:19:49.690Z,14.15
2022-12-07T17:22:16.939Z,9.82
2022-12-07T17:25:07.959Z,11.48
2022-12-07T17:27:33.399Z,8.82
2022-12-07T17:30:00.717Z,6.63
2022-12-07T17:32:29.301Z,7.53
2022-12-07T17:34:56.605Z,9.85
2022-12-07T17:37:23.906Z,6.90
2022-12-07T17:39:52.436Z,8.48
2022-12-07T17:42:37.685Z,8.00
2022-12-07T17:45:06.322Z,7.47
2022-12-07T17:47:36.406Z,7.20
2022-12-07T17:50:07.307Z,7.80
2022-12-07T17:52:56.938Z,7.30
2022-12-07T17:55:24.835Z,6.20
2022-12-07T17:57:52.189Z,8.07
2022-12-07T18:00:19.926Z,9.07
2022-12-07T18:02:48.607Z,9.43
2022-12-07T18:05:16.111Z,8.27
2022-12-07T18:07:43.527Z,6.63
2022-12-07T18:10:11.940Z,7.13
2022-12-07T18:12:40.516Z,8.52
2022-12-07T18:15:08.481Z,11.63
2022-12-07T18:17:35.755Z,6.28
2022-12-07T18:20:05.875Z,9.47
2022-12-07T18:22:33.161Z,7.15
2022-12-07T18:25:00.824Z,6.80
2022-12-07T18:27:28.306Z,6.95
2022-12-07T18:29:55.784Z,7.97
2022-12-07T18:32:23.333Z,7.17
2022-12-07T18:34:50.594Z,10.77
2022-12-07T18:37:19.168Z,8.90
2022-12-07T18:39:46.425Z,8.23
2022-12-07T18:42:13.656Z,6.47
2022-12-07T18:44:40.914Z,10.53
2022-12-07T18:47:08.195Z,11.10
2022-12-07T18:49:35.422Z,9.50
2022-12-07T18:52:02.699Z,10.15
2022-12-07T18:54:31.250Z,12.13
2022-12-07T18:56:58.487Z,10.20
2022-12-07T18:59:44.218Z,7.95
2022-12-07T19:02:12.387Z,6.40
2022-12-07T19:04:39.655Z,7.40
2022-12-07T19:07:07.099Z,7.03
2022-12-07T19:09:35.794Z,5.93
2022-12-07T19:12:05.345Z,10.18
2022-12-07T19:14:35.270Z,11.80
2022-12-07T19:17:06.025Z,10.52
2022-12-07T19:19:35.520Z,9.43
2022-12-07T19:22:03.296Z,14.90
2022-12-07T19:24:30.859Z,9.65
2022-12-07T19:26:59.822Z,7.90
2022-12-07T19:29:30.780Z,9.73
2022-12-07T19:31:58.516Z,11.50
2022-12-07T19:34:25.926Z,8.73
2022-12-07T19:36:53.214Z,11.15
2022-12-07T19:39:20.575Z,8.15
2022-12-07T19:41:47.896Z,7.60
2022-12-07T19:44:19.109Z,9.85
2022-12-07T19:46:49.699Z,6.87
2022-12-07T19:49:17.794Z,12.18
2022-12-07T19:51:46.849Z,10.32
2022-12-07T19:54:16.148Z,10.20
2022-12-07T19:56:44.628Z,9.65
2022-12-07T19:59:12.796Z,8.70
2022-12-07T20:01:42.415Z,8.45
2022-12-07T20:04:12.007Z,10.43
2022-12-07T20:06:39.627Z,8.63
2022-12-07T20:09:06.914Z,7.60
2022-12-07T20:11:53.766Z,12.87
2022-12-07T20:14:21.519Z,8.50
2022-12-07T20:16:50.610Z,9.65
2022-12-07T20:19:17.983Z,6.20
2022-12-07T20:21:46.187Z,9.43
2022-12-07T20:24:17.247Z,8.30
2022-12-07T20:26:46.074Z,10.63
2022-12-07T20:29:18.453Z,14.50
2022-12-07T20:31:48.778Z,11.10
2022-12-07T20:34:17.901Z,8.98
2022-12-07T20:36:45.457Z,8.10
2022-12-07T20:39:13.280Z,11.05
2022-12-07T20:41:59.568Z,9.32
2022-12-07T20:44:27.078Z,8.43
2022-12-07T20:46:54.580Z,7.85
2022-12-07T20:49:23.173Z,8.87
2022-12-07T20:51:51.390Z,9.10
2022-12-07T20:54:18.739Z,9.38
2022-12-07T20:56:46.098Z,9.68
2022-12-07T20:59:15.180Z,11.75
2022-12-07T21:01:43.055Z,11.00
2022-12-07T21:04:12.019Z,11.30
2022-12-07T21:06:41.256Z,10.50
2022-12-07T21:09:10.524Z,8.35
2022-12-07T21:11:39.137Z,13.05
2022-12-07T21:14:06.439Z,11.63
2022-12-07T21:16:33.757Z,10.85
2022-12-07T21:19:03.025Z,9.52
2022-12-07T21:21:31.625Z,10.38
2022-12-07T21:24:03.402Z,9.15
2022-12-07T21:26:35.754Z,8.63
2022-12-07T21:29:04.955Z,9.73
2022-12-07T21:31:32.530Z,8.52
2022-12-07T21:34:02.173Z,13.77
2022-12-07T21:36:29.455Z,13.07
2022-12-07T21:38:56.899Z,7.53
2022-12-07T21:41:27.458Z,9.65
2022-12-07T21:43:55.125Z,9.63
2022-12-07T21:46:26.891Z,8.48
2022-12-07T21:48:59.685Z,9.07
2022-12-07T21:51:28.342Z,10.73
2022-12-07T21:53:57.214Z,10.70
2022-12-07T21:56:27.228Z,8.98
2022-12-07T21:58:58.607Z,8.60
2022-12-07T22:01:27.687Z,8.55
2022-12-07T22:03:55.721Z,9.33
2022-12-07T22:06:24.986Z,11.07
2022-12-07T22:08:54.225Z,9.57
2022-12-07T22:11:21.896Z,9.77
2022-12-07T22:14:10.498Z,8.68
2022-12-07T22:16:38.760Z,10.93
2022-12-07T22:19:06.707Z,8.52
2022-12-07T22:21:35.001Z,10.25
2022-12-07T22:24:02.720Z,11.10
2022-12-07T22:26:30.383Z,9.70
2022-12-07T22:28:59.077Z,9.67
2022-12-07T22:31:26.562Z,10.30
2022-12-07T22:33:53.983Z,10.43
2022-12-07T22:36:21.278Z,11.15
2022-12-07T22:38:48.572Z,10.90
2022-12-07T22:41:19.574Z,10.23
2022-12-07T22:43:46.898Z,9.15
2022-12-07T22:46:15.511Z,10.57
2022-12-07T22:48:42.942Z,11.60
2022-12-07T22:51:20.125Z,9.38
2022-12-07T22:53:47.628Z,8.43
2022-12-07T22:56:15.025Z,11.57
2022-12-07T22:58:42.433Z,9.48
2022-12-07T23:01:11.170Z,9.88
2022-12-07T23:03:40.441Z,8.18
2022-12-07T23:06:09.754Z,8.67
2022-12-07T23:08:37.397Z,10.18
2022-12-07T23:11:08.037Z,9.73
2022-12-07T23:13:36.831Z,8.70
2022-12-07T23:16:10.441Z,10.80
2022-12-07T23:18:40.357Z,8.10
2022-12-07T23:21:08.354Z,9.15
2022-12-07T23:23:35.688Z,14.10
2022-12-07T23:26:04.055Z,9.30
2022-12-07T23:28:31.621Z,9.55
2022-12-07T23:31:03.534Z,11.30
2022-12-07T23:33:30.874Z,10.23
2022-12-07T23:36:08.829Z,11.43
2022-12-07T23:38:36.959Z,10.95
2022-12-07T23:41:06.098Z,9.93
2022-12-07T23:43:33.594Z,10.67
2022-12-07T23:46:00.839Z,10.00
2022-12-07T23:48:28.202Z,11.40
2022-12-07T23:50:59.026Z,9.25
2022-12-07T23:53:30.988Z,11.48
2022-12-07T23:55:58.341Z,10.13
2022-12-07T23:58:26.192Z,8.90
